Time;durP1;ratioP1;P1;durP2;ratioP2;P2;SDS_P1;SDS_P2;PMS_P1;PMS_P2;Temp;Humidity;BMP_temperature;BMP_pressure;BME280_temperature;BME280_humidity;BME280_pressure;Samples;Min_cycle;Max_cycle;Signal;HPM_P1;HPM_P2
2022/11/12 00:00:35;;;;;;;27.77;16.13;;;3.80;99.90;;;;;;6280367;22;20022;-84
2022/11/12 00:03:07;;;;;;;26.57;15.37;;;4.10;99.90;;;;;;6282017;22;20073;-84
2022/11/12 00:05:49;;;;;;;31.53;16.77;;;4.70;99.90;;;;;;6307686;22;20438;-84
2022/11/12 00:08:30;;;;;;;30.47;16.10;;;3.70;99.90;;;;;;6280237;22;20025;-84
2022/11/12 00:11:07;;;;;;;27.67;15.73;;;3.90;99.90;;;;;;6306937;22;20015;-84
2022/11/12 00:13:42;;;;;;;32.03;16.20;;;3.70;99.90;;;;;;6280116;22;20098;-84
2022/11/12 00:16:14;;;;;;;28.47;16.07;;;4.20;99.90;;;;;;6307336;22;20007;-84
2022/11/12 00:18:48;;;;;;;29.17;16.60;;;3.70;99.90;;;;;;6280444;22;20037;-84
2022/11/12 00:21:26;;;;;;;26.73;15.50;;;3.70;99.90;;;;;;6307879;22;20022;-84
2022/11/12 00:24:04;;;;;;;26.73;15.73;;;4.90;99.90;;;;;;6279702;22;20015;-84
2022/11/12 00:26:39;;;;;;;25.70;15.80;;;4.00;99.90;;;;;;6280224;22;20015;-84
2022/11/12 00:29:16;;;;;;;30.57;16.20;;;3.40;99.90;;;;;;6280221;22;20085;-84
2022/11/12 00:31:57;;;;;;;29.50;16.20;;;5.30;99.90;;;;;;6279556;22;20019;-84
2022/11/12 00:34:41;;;;;;;27.50;15.07;;;3.70;99.90;;;;;;6280407;22;20515;-84
2022/11/12 00:37:58;;;;;;;26.65;14.88;;;4.50;99.90;;;;;;6305570;22;20458;-84
2022/11/12 00:40:24;;;;;;;27.93;15.27;;;3.70;99.90;;;;;;6334230;22;20015;-84
2022/11/12 00:43:10;;;;;;;27.23;14.87;;;3.40;99.90;;;;;;6311100;22;20015;-84
2022/11/12 00:45:48;;;;;;;27.80;15.33;;;3.20;99.90;;;;;;6338197;22;20011;-84
2022/11/12 00:48:14;;;;;;;26.73;14.47;;;3.90;99.90;;;;;;6310879;22;20042;-84
2022/11/12 00:50:39;;;;;;;23.93;13.73;;;4.40;99.90;;;;;;6338134;22;20312;-84
2022/11/12 00:53:17;;;;;;;27.20;14.37;;;3.70;99.90;;;;;;6337984;22;20095;-84
2022/11/12 00:55:51;;;;;;;25.77;14.13;;;3.50;99.90;;;;;;6311129;22;20113;-84
2022/11/12 00:58:30;;;;;;;27.67;14.17;;;3.80;99.90;;;;;;6337848;22;20679;-84
2022/11/12 01:01:13;;;;;;;23.00;13.03;;;3.50;99.90;;;;;;6338744;22;20334;-84
2022/11/12 01:03:42;;;;;;;25.80;13.80;;;3.80;99.90;;;;;;6338855;22;20029;-84
2022/11/12 01:06:20;;;;;;;26.17;13.57;;;3.70;99.90;;;;;;6309507;22;20011;-84
2022/11/12 01:09:01;;;;;;;25.00;12.97;;;2.90;99.90;;;;;;6338681;22;20019;-84
2022/11/12 01:11:32;;;;;;;24.30;13.80;;;4.90;99.90;;;;;;6310907;22;20014;-84
2022/11/12 01:14:04;;;;;;;25.23;13.97;;;3.80;99.90;;;;;;6320041;22;20049;-84
2022/11/12 01:16:39;;;;;;;24.20;13.20;;;3.80;99.90;;;;;;6366674;22;20050;-82
2022/11/12 01:19:14;;;;;;;25.10;13.87;;;4.10;99.90;;;;;;6341987;22;20015;-84
2022/11/12 01:21:52;;;;;;;27.83;13.43;;;3.00;99.90;;;;;;6312278;22;20007;-84
2022/11/12 01:24:37;;;;;;;26.20;13.70;;;4.50;99.90;;;;;;6311028;22;20015;-84
2022/11/12 01:27:16;;;;;;;23.77;12.60;;;2.50;99.90;;;;;;6341489;22;20099;-84
2022/11/12 01:29:51;;;;;;;22.20;11.77;;;3.00;99.90;;;;;;6311420;22;20021;-84
2022/11/12 01:32:22;;;;;;;21.03;12.70;;;3.50;99.90;;;;;;6338446;22;20019;-84
2022/11/12 01:35:09;;;;;;;23.73;12.77;;;4.20;99.90;;;;;;6312082;22;20018;-84
2022/11/12 01:37:53;;;;;;;21.83;12.13;;;3.60;99.90;;;;;;6338516;22;20019;-84
2022/11/12 01:40:44;;;;;;;28.48;12.80;;;3.30;99.90;;;;;;6336735;22;20473;-84
2022/11/12 01:43:18;;;;;;;24.17;12.83;;;4.70;99.90;;;;;;6310359;22;20017;-84
2022/11/12 01:46:00;;;;;;;28.70;13.40;;;3.80;99.90;;;;;;6315719;22;20071;-84
2022/11/12 01:48:46;;;;;;;24.63;13.07;;;3.20;99.90;;;;;;6309551;22;20046;-84
2022/11/12 01:51:20;;;;;;;25.73;13.30;;;3.60;99.90;;;;;;6341237;22;20015;-84
2022/11/12 01:54:04;;;;;;;23.73;12.13;;;2.90;99.90;;;;;;6339197;22;20015;-84
2022/11/12 01:56:38;;;;;;;23.35;13.75;;;3.20;99.90;;;;;;6309353;22;20015;-84
2022/11/12 01:59:21;;;;;;;27.53;13.13;;;5.20;99.90;;;;;;6310821;22;20011;-84
2022/11/12 02:01:49;;;;;;;23.93;12.40;;;3.40;99.90;;;;;;6309764;22;20388;-84
2022/11/12 02:04:31;;;;;;;29.47;13.47;;;4.00;99.90;;;;;;6310136;22;20465;-84
2022/11/12 02:07:05;;;;;;;25.53;14.23;;;3.20;99.90;;;;;;6338588;22;20038;-84
2022/11/12 02:09:34;;;;;;;;;;;2.90;99.90;;;;;;6309758;22;20015;-84
2022/11/12 02:15:12;;;;;;;28.30;13.63;;;3.30;99.90;;;;;;6310291;22;20014;-84
2022/11/12 02:17:53;;;;;;;31.30;14.33;;;3.20;99.90;;;;;;6309627;22;20459;-84
2022/11/12 02:20:35;;;;;;;30.60;15.77;;;4.10;99.90;;;;;;6310109;22;20103;-84
2022/11/12 02:23:13;;;;;;;30.80;14.00;;;3.00;99.90;;;;;;6309693;22;20097;-84
2022/11/12 02:25:44;;;;;;;28.87;15.10;;;3.70;99.90;;;;;;6338566;22;20339;-84
2022/11/12 02:28:22;;;;;;;29.47;13.90;;;2.90;99.90;;;;;;6338161;22;20019;-84
2022/11/12 02:30:48;;;;;;;25.43;14.27;;;2.80;99.90;;;;;;6309050;22;20556;-84
2022/11/12 02:33:29;;;;;;;23.73;13.63;;;3.00;99.90;;;;;;6337968;22;20100;-84
2022/11/12 02:36:03;;;;;;;26.00;13.77;;;3.30;99.90;;;;;;6310000;22;20374;-84
2022/11/12 02:38:41;;;;;;;25.00;13.67;;;3.30;99.90;;;;;;6303658;22;20019;-84
2022/11/12 02:41:26;;;;;;;27.03;13.97;;;4.20;99.90;;;;;;6305252;22;20046;-84
2022/11/12 02:43:57;;;;;;;24.87;13.23;;;2.90;99.90;;;;;;6304524;22;20015;-84
2022/11/12 02:46:45;;;;;;;27.37;13.40;;;2.80;99.90;;;;;;6306131;22;20418;-84
2022/11/12 02:49:10;;;;;;;24.50;12.60;;;2.90;99.90;;;;;;6305073;22;20022;-84
2022/11/12 02:51:39;;;;;;;28.53;13.13;;;4.30;99.90;;;;;;6304499;22;20404;-84
2022/11/12 02:54:24;;;;;;;24.30;13.03;;;2.90;99.90;;;;;;6307442;22;20443;-84
2022/11/12 02:57:05;;;;;;;23.17;11.70;;;3.80;99.90;;;;;;6308659;22;20459;-84
2022/11/12 02:59:43;;;;;;;24.33;12.47;;;3.00;99.90;;;;;;6307805;22;20082;-84
2022/11/12 03:02:24;;;;;;;28.13;12.47;;;2.90;99.90;;;;;;6306527;22;20019;-84
2022/11/12 03:05:02;;;;;;;24.70;12.50;;;2.80;99.90;;;;;;6309965;22;20037;-84
2022/11/12 03:07:43;;;;;;;22.47;11.90;;;3.00;99.90;;;;;;6306872;22;20049;-84
2022/11/12 03:10:15;;;;;;;21.77;11.50;;;3.10;99.90;;;;;;6306193;22;20102;-84
2022/11/12 03:12:57;;;;;;;23.57;11.37;;;3.10;99.90;;;;;;6311472;22;20057;-84
2022/11/12 03:15:41;;;;;;;22.83;11.20;;;2.70;99.90;;;;;;6306801;22;20019;-84
2022/11/12 03:18:58;;;;;;;23.25;12.10;;;4.20;99.90;;;;;;6304071;22;20011;-84
2022/11/12 03:21:48;;;;;;;22.67;11.30;;;3.10;99.90;;;;;;6307410;22;20443;-85
2022/11/12 03:24:23;;;;;;;21.13;11.40;;;4.90;99.90;;;;;;6280239;22;20060;-84
2022/11/12 03:27:03;;;;;;;20.57;10.80;;;3.00;99.90;;;;;;6280198;22;20347;-84
2022/11/12 03:29:44;;;;;;;25.00;11.40;;;2.60;99.90;;;;;;6308443;22;20030;-84
2022/11/12 03:32:25;;;;;;;21.50;11.33;;;4.10;99.90;;;;;;6280760;22;20026;-84
2022/11/12 03:35:00;;;;;;;18.67;11.03;;;3.30;99.90;;;;;;6284344;22;20037;-84
2022/11/12 03:37:37;;;;;;;24.10;11.43;;;2.20;99.90;;;;;;6280420;22;20015;-84
2022/11/12 03:40:18;;;;;;;23.30;11.40;;;3.70;99.90;;;;;;6307800;22;20028;-84
2022/11/12 03:42:53;;;;;;;23.00;11.87;;;2.40;99.90;;;;;;6284515;22;20443;-85
2022/11/12 03:45:37;;;;;;;22.97;11.73;;;2.40;99.90;;;;;;6280345;22;20098;-84
2022/11/12 03:48:25;;;;;;;25.85;11.85;;;3.00;99.90;;;;;;6279838;22;20023;-84
2022/11/12 03:50:51;;;;;;;24.70;11.90;;;1.80;99.90;;;;;;6308188;22;20011;-84
2022/11/12 03:53:28;;;;;;;21.33;11.47;;;2.40;99.90;;;;;;6308139;22;20011;-84
2022/11/12 03:56:09;;;;;;;22.87;11.67;;;2.90;99.90;;;;;;6280144;22;20053;-84
2022/11/12 03:58:56;;;;;;;23.00;11.40;;;2.30;99.90;;;;;;6280291;22;20020;-84
2022/11/12 04:01:40;;;;;;;24.83;12.87;;;2.60;99.90;;;;;;6279594;22;20012;-84
2022/11/12 04:04:21;;;;;;;22.90;12.60;;;4.20;99.90;;;;;;6279934;22;20018;-84
2022/11/12 04:10:14;;;;;;;21.97;11.50;;;3.20;99.90;;;;;;6281396;22;20076;-84
2022/11/12 04:21:49;;;;;;;24.80;12.40;;;2.60;99.90;;;;;;6310797;22;20019;-84
2022/11/12 04:21:55;;;;;;;22.67;11.33;;;2.10;99.90;;;;;;6280592;22;20065;-84
2022/11/12 04:27:25;;;;;;;22.00;10.80;;;2.90;99.90;;;;;;6308011;22;20019;-84
2022/11/12 04:30:18;;;;;;;23.17;11.20;;;2.60;99.90;;;;;;6279225;22;20410;-84
2022/11/12 04:32:54;;;;;;;22.27;11.60;;;2.50;99.90;;;;;;6280606;22;20027;-84
2022/11/12 04:35:21;;;;;;;21.20;10.13;;;2.10;99.90;;;;;;6279881;22;20034;-84
2022/11/12 04:37:56;;;;;;;19.00;10.17;;;2.10;99.90;;;;;;6306909;22;20434;-84
2022/11/12 04:46:21;;;;;;;18.03;9.80;;;2.00;99.90;;;;;;6338904;22;20093;-84
2022/11/12 04:48:59;;;;;;;20.43;10.00;;;2.10;99.90;;;;;;6315032;22;20018;-84
2022/11/12 04:54:18;;;;;;;18.93;9.70;;;3.10;99.90;;;;;;6311039;22;20015;-83
2022/11/12 04:57:02;;;;;;;19.63;10.33;;;3.30;99.90;;;;;;6339440;22;20010;-84
2022/11/12 04:59:27;;;;;;;19.30;10.07;;;2.20;99.90;;;;;;6310331;22;20033;-84
2022/11/12 05:01:59;;;;;;;20.60;10.47;;;1.80;99.90;;;;;;6283060;22;20437;-84
2022/11/12 05:04:43;;;;;;;19.63;10.00;;;3.00;99.90;;;;;;6336880;22;20541;-84
2022/11/12 05:07:21;;;;;;;20.63;11.07;;;1.90;99.90;;;;;;6310357;22;20050;-84
2022/11/12 05:09:47;;;;;;;19.30;10.23;;;2.00;99.90;;;;;;6311180;22;20056;-84
2022/11/12 05:12:18;;;;;;;18.23;9.53;;;1.80;99.90;;;;;;6309585;22;20014;-84
2022/11/12 05:14:53;;;;;;;19.47;10.53;;;1.80;99.90;;;;;;6338286;22;20419;-84
2022/11/12 05:17:31;;;;;;;21.40;10.27;;;2.50;99.90;;;;;;6338526;22;20015;-84
2022/11/12 05:19:57;;;;;;;20.47;9.50;;;1.50;99.90;;;;;;6309967;22;20014;-84
2022/11/12 05:22:33;;;;;;;19.67;10.50;;;1.70;99.90;;;;;;6310456;22;20091;-84
2022/11/12 05:25:14;;;;;;;20.37;10.17;;;1.60;99.90;;;;;;6343173;22;20018;-84
2022/11/12 05:27:51;;;;;;;19.83;10.20;;;1.90;99.90;;;;;;6339212;22;20018;-84
2022/11/12 05:30:32;;;;;;;20.87;10.70;;;1.60;99.90;;;;;;6338542;22;20010;-84
2022/11/12 05:32:58;;;;;;;21.03;10.27;;;1.40;99.90;;;;;;6312291;22;20069;-84
2022/11/12 05:35:42;;;;;;;20.53;10.37;;;1.60;99.90;;;;;;6309819;22;20007;-84
2022/11/12 05:38:07;;;;;;;19.77;10.23;;;2.20;99.90;;;;;;6339215;22;20011;-84
2022/11/12 05:40:51;;;;;;;17.33;9.07;;;2.00;99.90;;;;;;6309777;22;20021;-84
2022/11/12 05:43:42;;;;;;;19.60;10.48;;;2.00;99.90;;;;;;6323202;22;20072;-84
2022/11/12 05:46:18;;;;;;;19.70;10.03;;;3.10;99.90;;;;;;6310337;22;20050;-84
2022/11/12 05:48:52;;;;;;;19.33;9.47;;;1.50;99.90;;;;;;6310307;22;20086;-84
2022/11/12 05:51:21;;;;;;;18.17;9.43;;;2.10;99.90;;;;;;6310119;22;20413;-84
2022/11/12 05:53:47;;;;;;;20.60;10.00;;;2.50;99.90;;;;;;6337593;22;20015;-84
2022/11/12 05:56:13;;;;;;;20.67;10.33;;;1.40;99.90;;;;;;6310258;22;20018;-84
2022/11/12 05:58:54;;;;;;;20.50;10.27;;;2.20;99.90;;;;;;6337912;22;20071;-84
2022/11/12 06:01:42;;;;;;;18.43;9.03;;;1.80;99.90;;;;;;6309120;22;20010;-84
2022/11/12 06:04:21;;;;;;;21.47;10.43;;;1.30;99.90;;;;;;6310497;22;20090;-84
2022/11/12 06:07:02;;;;;;;18.03;9.87;;;2.60;99.90;;;;;;6310566;22;20098;-84
2022/11/12 06:09:42;;;;;;;20.10;10.67;;;2.30;99.90;;;;;;6309279;22;20011;-84
2022/11/12 06:12:21;;;;;;;22.10;10.87;;;1.10;99.90;;;;;;6311813;22;20441;-84
2022/11/12 06:14:48;;;;;;;21.50;11.20;;;1.60;99.90;;;;;;6313146;22;20038;-84
2022/11/12 06:17:28;;;;;;;21.60;10.87;;;1.40;99.90;;;;;;6342689;22;20010;-84
2022/11/12 06:20:10;;;;;;;21.63;11.23;;;1.40;99.90;;;;;;6318249;22;20010;-83
2022/11/12 06:22:49;;;;;;;19.67;11.00;;;1.50;99.90;;;;;;6341520;22;20019;-84
2022/11/12 06:25:31;;;;;;;25.17;12.20;;;1.60;99.90;;;;;;6316091;22;20063;-83
2022/11/12 06:28:00;;;;;;;22.70;10.80;;;1.50;99.90;;;;;;6315738;22;20358;-83
2022/11/12 06:30:32;;;;;;;20.50;10.70;;;1.40;99.90;;;;;;6342651;22;20014;-84
2022/11/12 06:32:58;;;;;;;20.00;10.83;;;1.50;99.90;;;;;;6316011;22;20508;-84
2022/11/12 06:35:40;;;;;;;22.80;11.43;;;1.20;99.90;;;;;;6314851;22;20010;-84
2022/11/12 06:41:09;;;;;;;24.63;12.03;;;1.60;99.90;;;;;;6315798;22;20093;-84
2022/11/12 06:44:26;;;;;;;22.73;12.00;;;1.30;99.90;;;;;;6309012;22;20140;-84
2022/11/12 06:46:58;;;;;;;26.30;12.60;;;1.60;99.90;;;;;;6310752;22;20016;-85
2022/11/12 06:49:31;;;;;;;20.70;11.10;;;1.40;99.90;;;;;;6311863;22;20015;-85
2022/11/12 06:52:15;;;;;;;20.40;11.00;;;1.40;99.90;;;;;;6311591;22;20454;-84
2022/11/12 06:54:53;;;;;;;24.07;11.67;;;1.40;99.90;;;;;;6185322;22;20011;-84
2022/11/12 06:58:20;;;;;;;24.90;12.33;;;1.20;99.90;;;;;;6312075;22;20019;-85
2022/11/12 07:03:30;;;;;;;24.40;12.00;;;1.30;99.90;;;;;;6310874;22;20038;-82
2022/11/12 07:05:56;;;;;;;21.70;12.00;;;1.30;99.90;;;;;;6313034;22;20016;-85
2022/11/12 07:15:24;;;;;;;23.67;13.40;;;2.10;99.90;;;;;;6273486;22;20060;-84
2022/11/12 07:18:08;;;;;;;21.97;12.17;;;1.20;99.90;;;;;;6285780;22;20074;-84
2022/11/12 07:20:42;;;;;;;22.65;13.40;;;3.00;99.90;;;;;;6312973;22;20431;-84
2022/11/12 07:23:20;;;;;;;25.53;13.73;;;1.50;99.90;;;;;;6285725;22;20051;-87
2022/11/12 07:26:26;;;;;;;23.93;13.00;;;0.00;99.90;;;;;;6312015;22;20015;-86
2022/11/12 07:28:59;;;;;;;26.67;14.17;;;2.20;99.90;;;;;;6324190;22;20025;-86
2022/11/12 07:35:31;;;;;;;24.63;13.97;;;0.90;99.90;;;;;;6343342;22;20015;-86
2022/11/12 07:38:10;;;;;;;25.80;15.30;;;2.40;99.90;;;;;;6315390;22;20019;-85
2022/11/12 07:40:47;;;;;;;27.63;14.17;;;2.20;99.90;;;;;;6342697;22;20023;-86
2022/11/12 07:44:00;;;;;;;77.00;22.47;;;1.90;99.90;;;;;;6342872;22;20042;-86
2022/11/12 07:46:32;;;;;;;99.50;25.47;;;2.30;99.90;;;;;;6269562;22;20383;-86
2022/11/12 07:49:59;;;;;;;;;;;;;;;;;;;;;
2022/11/12 07:53:29;;;;;;;56.93;19.23;;;2.70;99.90;;;;;;6311665;22;20019;-87
2022/11/12 07:56:47;;;;;;;49.87;19.13;;;1.10;99.90;;;;;;6346459;22;20513;-85
2022/11/12 08:00:22;;;;;;;44.17;17.80;;;3.00;99.90;;;;;;6315258;22;20026;-86
2022/11/12 08:06:27;;;;;;;31.80;17.10;;;2.40;99.90;;;;;;6343050;22;19942;-85
2022/11/12 08:09:07;;;;;;;33.70;17.40;;;2.20;99.90;;;;;;6314211;22;20015;-84
2022/11/12 08:11:53;;;;;;;37.20;20.87;;;2.30;99.90;;;;;;6316016;22;20021;-85
2022/11/12 08:14:40;;;;;;;34.60;20.80;;;2.40;99.90;;;;;;6341527;22;20015;-85
2022/11/12 08:17:24;;;;;;;34.73;19.93;;;2.50;99.90;;;;;;6343641;22;20015;-84
2022/11/12 08:20:04;;;;;;;37.30;20.75;;;2.60;99.90;;;;;;6315525;22;20101;-86
2022/11/12 08:22:37;;;;;;;40.40;21.70;;;2.80;99.90;;;;;;6312596;22;20064;-86
2022/11/12 08:25:08;;;;;;;36.72;21.77;;;2.10;99.90;;;;;;6308665;22;20019;-86
2022/11/12 08:27:37;;;;;;;37.80;21.70;;;3.20;99.90;;;;;;6306974;22;20474;-86
2022/11/12 08:30:14;;;;;;;38.67;23.47;;;4.40;99.90;;;;;;6305584;22;20011;-86
2022/11/12 08:32:48;;;;;;;34.20;20.97;;;4.60;99.90;;;;;;6306556;22;20018;-86
2022/11/12 08:35:25;;;;;;;35.83;21.53;;;3.70;99.90;;;;;;6307020;22;20007;-86
2022/11/12 08:38:16;;;;;;;;;;;;;;;;;;;;;
2022/11/12 08:41:13;;;;;;;42.57;25.13;;;4.70;99.90;;;;;;6234970;22;20019;-86
2022/11/12 08:43:57;;;;;;;38.47;23.70;;;3.70;99.90;;;;;;6305186;22;20015;-85
2022/11/12 08:46:28;;;;;;;40.10;23.80;;;2.50;99.90;;;;;;6306894;22;20026;-84
2022/11/12 08:48:54;;;;;;;41.33;25.83;;;3.50;99.90;;;;;;6306568;22;20035;-84
2022/11/12 08:56:20;;;;;;;38.10;24.10;;;4.20;99.90;;;;;;6306786;22;20023;-85
2022/11/12 08:59:09;;;;;;;33.73;22.57;;;4.20;99.90;;;;;;6307215;22;20015;-85
2022/11/12 09:01:55;;;;;;;38.73;23.97;;;4.50;99.90;;;;;;6306052;22;20466;-85
2022/11/12 09:04:33;;;;;;;41.10;24.97;;;4.20;99.90;;;;;;6309612;22;20439;-86
2022/11/12 09:07:42;;;;;;;42.73;24.93;;;4.20;99.90;;;;;;6307385;22;20094;-86
2022/11/12 09:39:56;;;;;;;42.73;26.43;;;5.80;99.90;;;;;;6281205;22;20030;-86
2022/11/12 09:43:12;;;;;;;38.63;25.67;;;5.50;99.90;;;;;;6297843;22;20026;-84
2022/11/12 09:46:30;;;;;;;36.33;25.90;;;6.20;99.90;;;;;;6307372;22;20023;-84
2022/11/12 09:50:07;;;;;;;37.90;25.17;;;6.70;99.90;;;;;;6309228;22;20050;-84
2022/11/12 09:53:21;;;;;;;39.10;25.13;;;7.30;99.90;;;;;;6308203;22;20038;-82
2022/11/12 09:56:11;;;;;;;34.83;22.73;;;6.70;99.90;;;;;;6170669;22;20028;-83
2022/11/12 09:58:43;;;;;;;36.00;23.43;;;6.80;99.90;;;;;;6320374;22;20076;-83
2022/11/12 10:02:13;;;;;;;34.37;22.00;;;8.00;99.90;;;;;;6309515;22;20019;-84
2022/11/12 10:05:21;;;;;;;32.13;21.07;;;6.40;99.90;;;;;;6130142;23;20018;-84
2022/11/12 10:08:33;;;;;;;32.27;20.13;;;7.20;99.90;;;;;;6153683;23;20045;-84
2022/11/12 10:14:48;;;;;;;29.37;17.93;;;7.60;99.90;;;;;;6234802;22;20023;-84
2022/11/12 10:18:06;;;;;;;31.10;17.13;;;8.10;99.90;;;;;;6340444;22;20068;-83
2022/11/12 10:23:50;;;;;;;25.20;14.97;;;9.00;99.90;;;;;;6312791;22;20518;-85
2022/11/12 10:34:32;;;;;;;24.77;13.23;;;10.10;99.90;;;;;;6117538;23;20021;-85
2022/11/12 10:38:00;;;;;;;19.73;12.85;;;8.50;99.90;;;;;;6088950;23;20130;-85
2022/11/12 10:46:14;;;;;;;;;;;;;;;;;;;;;
2022/11/12 10:49:41;;;;;;;;;;;;;;;;;;;;;
2022/11/12 11:07:41;;;;;;;17.60;10.20;;;11.20;99.90;;;;;;6334390;22;20018;-84
2022/11/12 11:45:48;;;;;;;14.68;9.02;;;12.80;99.90;;;;;;6319023;22;20023;-85
2022/11/12 11:48:59;;;;;;;16.10;8.75;;;13.10;99.90;;;;;;6311707;22;20015;-84
2022/11/12 11:52:07;;;;;;;;;;;13.10;99.90;;;;;;6286812;22;20017;-84
2022/11/12 11:55:31;;;;;;;14.75;8.27;;;13.50;99.90;;;;;;6311129;22;19993;-84
2022/11/12 12:08:11;;;;;;;;;;;13.70;99.90;;;;;;6242299;23;20444;-85
2022/11/12 12:11:49;;;;;;;12.90;8.07;;;13.90;99.90;;;;;;6243621;23;19916;-85
2022/11/12 12:18:28;;;;;;;;;;;;;;;;;;;;;
2022/11/12 12:22:08;;;;;;;14.35;8.60;;;13.10;99.90;;;;;;6185850;23;20020;-85
2022/11/12 12:25:12;;;;;;;13.60;8.20;;;13.90;99.90;;;;;;6232919;22;20439;-84
2022/11/12 12:27:59;;;;;;;14.23;8.77;;;13.80;99.90;;;;;;6338255;22;20061;-85
2022/11/12 12:30:34;;;;;;;14.05;8.75;;;14.60;99.90;;;;;;6258260;22;20014;-84
2022/11/12 13:27:44;;;;;;;;;;;13.70;99.90;;;;;;6183138;23;20064;-85
2022/11/12 13:45:37;;;;;;;12.65;7.85;;;15.70;99.90;;;;;;6011568;23;20023;-85
2022/11/12 13:48:47;;;;;;;15.13;8.27;;;14.70;99.90;;;;;;6064751;23;20076;-86
2022/11/12 13:52:02;;;;;;;;;;;;;;;;;;;;;
2022/11/12 13:55:27;;;;;;;14.55;7.75;;;14.70;99.90;;;;;;6026082;23;20408;-85
2022/11/12 14:04:52;;;;;;;;;;;;;;;;;;;;;
2022/11/12 14:18:52;;;;;;;16.13;8.25;;;13.50;99.90;;;;;;6316930;22;20434;-85
2022/11/12 14:21:28;;;;;;;17.02;8.23;;;13.30;99.90;;;;;;6337044;22;20079;-85
2022/11/12 14:24:33;;;;;;;13.48;7.60;;;14.60;99.90;;;;;;6310478;22;20098;-86
2022/11/12 14:27:55;;;;;;;;;;;;;;;;;;;;;
2022/11/12 14:30:45;;;;;;;14.18;8.40;;;12.90;99.90;;;;;;6226595;22;20325;-85
2022/11/12 14:34:01;;;;;;;16.35;8.68;;;12.80;99.90;;;;;;6276004;22;20019;-85
2022/11/12 14:36:54;;;;;;;15.95;7.93;;;13.60;99.90;;;;;;6248240;22;20047;-86
2022/11/12 14:39:34;;;;;;;17.77;8.38;;;12.60;99.90;;;;;;6275157;22;20022;-85
2022/11/12 14:42:18;;;;;;;14.38;8.25;;;12.40;99.90;;;;;;6248167;22;20451;-86
2022/11/12 14:48:09;;;;;;;21.30;8.63;;;12.20;99.90;;;;;;6273046;22;20023;-86
2022/11/12 14:50:41;;;;;;;37.00;10.38;;;11.00;99.90;;;;;;6312016;22;20023;-85
2022/11/12 14:53:31;;;;;;;33.47;10.65;;;12.70;99.90;;;;;;6339812;22;20338;-85
2022/11/12 14:56:22;;;;;;;37.47;9.63;;;11.90;99.90;;;;;;6311041;22;20019;-85
2022/11/12 14:59:00;;;;;;;32.03;10.52;;;12.60;99.90;;;;;;6308962;22;20048;-85
2022/11/12 15:02:20;;;;;;;42.42;12.30;;;11.40;99.90;;;;;;6338836;22;20046;-85
2022/11/12 15:05:13;;;;;;;21.52;9.13;;;11.60;99.90;;;;;;6316183;22;20064;-86
2022/11/12 15:08:17;;;;;;;34.38;10.20;;;11.40;99.90;;;;;;6338436;22;20015;-85
2022/11/12 15:11:32;;;;;;;19.45;9.05;;;11.40;99.90;;;;;;6310407;22;20094;-85
2022/11/12 15:14:22;;;;;;;22.55;9.02;;;11.30;99.90;;;;;;6312018;22;20026;-85
2022/11/12 15:17:04;;;;;;;22.00;8.63;;;11.10;99.90;;;;;;6310826;22;20042;-86
2022/11/12 15:19:45;;;;;;;18.40;7.93;;;12.90;99.90;;;;;;6311182;22;20014;-85
2022/11/12 15:22:25;;;;;;;15.85;8.75;;;11.80;99.90;;;;;;6311401;22;20015;-86
2022/11/12 15:25:11;;;;;;;18.30;9.45;;;10.90;99.90;;;;;;6310479;22;20105;-86
2022/11/12 15:27:46;;;;;;;24.20;10.25;;;10.70;99.90;;;;;;6311269;22;20013;-85
2022/11/12 15:30:43;;;;;;;21.52;10.88;;;12.10;99.90;;;;;;6327138;22;20006;-85
2022/11/12 15:33:28;;;;;;;19.38;10.95;;;10.50;99.90;;;;;;6333330;22;20023;-85
2022/11/12 15:35:59;;;;;;;20.85;11.40;;;11.20;99.90;;;;;;6313365;22;20015;-85
2022/11/12 15:38:37;;;;;;;17.25;10.43;;;9.60;99.90;;;;;;6312042;22;20015;-85
2022/11/12 15:41:33;;;;;;;17.95;10.45;;;9.60;99.90;;;;;;6338934;22;20148;-85
2022/11/12 15:44:32;;;;;;;19.00;11.30;;;10.20;99.90;;;;;;6344074;22;20070;-86
2022/11/12 15:47:02;;;;;;;20.98;11.48;;;9.80;99.90;;;;;;6313296;22;20019;-86
2022/11/12 15:50:31;;;;;;;18.45;10.38;;;10.80;99.90;;;;;;6305526;22;20015;-85
2022/11/12 15:52:57;;;;;;;17.73;10.73;;;9.10;99.90;;;;;;6308956;22;20023;-85
2022/11/12 15:55:33;;;;;;;18.55;10.63;;;9.40;99.90;;;;;;6307036;22;20015;-85
2022/11/12 15:58:43;;;;;;;17.58;10.25;;;10.20;99.90;;;;;;6308380;22;20335;-85
2022/11/12 16:01:20;;;;;;;17.05;10.30;;;10.40;99.90;;;;;;6309411;22;20051;-85
2022/11/12 16:03:52;;;;;;;18.23;10.57;;;9.20;99.90;;;;;;6307761;22;20098;-86
2022/11/12 16:06:18;;;;;;;21.02;13.05;;;9.70;99.90;;;;;;6305764;22;20007;-85
2022/11/12 16:08:43;;;;;;;20.70;13.25;;;8.80;99.90;;;;;;6307889;22;20110;-86
2022/11/12 16:14:22;;;;;;;20.33;12.45;;;8.80;99.90;;;;;;6308430;22;20015;-86
2022/11/12 16:24:08;;;;;;;;;;;;;;;;;;;;;
2022/11/12 16:27:01;;;;;;;63.03;32.40;;;8.60;99.90;;;;;;6248421;22;20027;-89
2022/11/12 16:29:32;;;;;;;54.58;27.65;;;9.80;99.90;;;;;;6249763;22;20062;-87
2022/11/12 16:33:04;;;;;;;56.28;29.02;;;8.30;99.90;;;;;;6245438;22;20086;-88
2022/11/12 16:39:44;;;;;;;53.17;28.65;;;7.70;99.90;;;;;;6338477;22;20079;-87
2022/11/12 16:42:22;;;;;;;51.67;27.42;;;8.00;99.90;;;;;;6309853;22;20411;-87
2022/11/12 16:45:03;;;;;;;42.83;28.35;;;7.70;99.90;;;;;;6338576;22;20438;-87
2022/11/12 16:47:33;;;;;;;41.72;24.30;;;7.90;99.90;;;;;;6308695;22;21455;-87
2022/11/12 16:50:11;;;;;;;39.83;24.25;;;8.00;99.90;;;;;;6339252;22;20018;-87
2022/11/12 16:52:56;;;;;;;42.78;25.58;;;8.10;99.90;;;;;;6338743;22;20532;-87
2022/11/12 16:55:26;;;;;;;39.22;25.90;;;8.80;99.90;;;;;;6337564;22;20044;-86
2022/11/12 16:58:06;;;;;;;34.65;21.85;;;7.30;99.90;;;;;;6339699;22;20139;-87
2022/11/12 17:00:39;;;;;;;33.08;20.20;;;9.30;99.90;;;;;;6338141;22;20014;-87
2022/11/12 17:03:56;;;;;;;30.63;19.50;;;7.60;99.90;;;;;;6293491;22;20102;-87
2022/11/12 17:31:57;;;;;;;26.93;16.57;;;7.30;99.90;;;;;;6333352;22;20018;-86
2022/11/12 17:34:55;;;;;;;21.13;13.60;;;7.30;99.90;;;;;;6336015;22;20147;-88
2022/11/12 17:37:50;;;;;;;23.23;13.67;;;7.80;99.90;;;;;;6308454;22;20094;-87
2022/11/12 17:40:43;;;;;;;25.00;14.20;;;7.30;99.90;;;;;;6336338;22;20434;-87
2022/11/12 17:49:34;;;;;;;22.53;13.37;;;7.70;99.90;;;;;;6320917;22;20366;-88
2022/11/12 17:52:57;;;;;;;;;;;;;;;;;;;;;
2022/11/12 17:55:47;;;;;;;22.67;13.23;;;8.70;99.90;;;;;;6215587;23;20075;-88
2022/11/12 17:58:20;;;;;;;19.87;12.73;;;9.10;99.90;;;;;;6213114;23;20020;-88
2022/11/12 18:01:33;;;;;;;22.40;12.87;;;8.00;99.90;;;;;;6216390;23;20070;-87
2022/11/12 18:04:20;;;;;;;23.07;14.10;;;7.60;99.90;;;;;;6151803;23;20026;-87
2022/11/12 18:07:21;;;;;;;22.73;14.97;;;7.70;99.90;;;;;;6120787;23;20451;-88
2022/11/12 18:09:52;;;;;;;28.43;16.10;;;7.10;99.90;;;;;;6086148;23;20014;-87
2022/11/12 18:12:35;;;;;;;26.70;15.90;;;6.90;99.90;;;;;;6151010;22;20101;-88
2022/11/12 18:15:15;;;;;;;28.30;17.83;;;8.20;99.90;;;;;;6247468;22;20028;-88
2022/11/12 18:20:43;;;;;;;27.87;17.43;;;7.20;99.90;;;;;;6249559;22;20142;-88
2022/11/12 18:23:15;;;;;;;30.80;20.37;;;8.10;99.90;;;;;;6248382;22;20051;-87
2022/11/12 18:26:25;;;;;;;28.77;18.50;;;7.00;99.90;;;;;;6250184;22;20186;-87
2022/11/12 18:29:06;;;;;;;29.20;19.80;;;6.80;99.90;;;;;;6254463;22;20396;-88
2022/11/12 18:31:57;;;;;;;27.53;18.70;;;8.10;99.90;;;;;;6326432;22;20066;-90
2022/11/12 18:38:03;;;;;;;27.73;18.53;;;7.00;99.90;;;;;;6343080;22;20025;-90
2022/11/12 18:40:38;;;;;;;26.13;16.57;;;6.70;99.90;;;;;;6309615;22;20450;-90
2022/11/12 18:43:22;;;;;;;25.57;17.00;;;7.30;99.90;;;;;;6311943;22;20031;-89
2022/11/12 18:45:57;;;;;;;23.73;15.53;;;6.00;99.90;;;;;;6311776;22;20015;-90
2022/11/12 18:48:55;;;;;;;32.00;20.77;;;6.70;99.90;;;;;;6338537;22;20485;-90
2022/11/12 18:51:42;;;;;;;27.33;19.33;;;6.50;99.90;;;;;;6338392;22;20025;-89
2022/11/12 18:54:14;;;;;;;31.20;21.23;;;6.70;99.90;;;;;;6274358;22;20035;-90
2022/11/12 18:56:49;;;;;;;26.87;17.67;;;7.30;99.90;;;;;;6327861;22;20587;-90
2022/11/12 18:59:20;;;;;;;32.43;19.40;;;7.50;99.90;;;;;;6338812;22;20111;-90
2022/11/12 19:01:56;;;;;;;27.10;17.03;;;6.60;99.90;;;;;;6313922;22;20097;-90
2022/11/12 19:04:25;;;;;;;27.83;18.97;;;7.40;99.90;;;;;;6312890;22;20069;-90
2022/11/12 19:07:03;;;;;;;28.90;17.30;;;6.60;99.90;;;;;;6339329;22;20015;-90
2022/11/12 19:09:38;;;;;;;30.23;17.70;;;7.10;99.90;;;;;;6310251;22;20022;-90
2022/11/12 19:12:09;;;;;;;25.87;17.53;;;6.60;99.90;;;;;;6311344;22;20057;-89
2022/11/12 19:14:47;;;;;;;26.43;17.13;;;6.50;99.90;;;;;;6311435;22;20015;-89
2022/11/12 19:17:31;;;;;;;25.70;16.87;;;7.40;99.90;;;;;;6337971;22;20452;-89
2022/11/12 19:20:13;;;;;;;25.37;16.73;;;8.50;99.90;;;;;;6311281;22;20018;-89
2022/11/12 19:25:08;;;;;;;26.77;16.17;;;6.70;99.90;;;;;;6336775;22;20030;-89